Aérodrome :
LOGIN :

S'inscrire | Disclaimer

   EN    FR    IT 

 










Légende :    VFR   VFR Marginal   IFR   IFR Intensif   IFR Très Intensif
Visi : 
Plafond : 
>= 8 km
>= 3000ft
5 à 8 km
1000 à 3000 ft
1500m à 5 km
500 à 1000 ft
800 à 1500m
200 à 500 ft
< 800m
< 200 ft
Symboles :   Orages  Brouillard  Fortes neiges  Fortes précipitations  Vent > 20 kt
SIGMETs :   Divers  Orages  Givrage  Turbulence  Onde Orograph.  Cendres Volcan.






- Altitude de l'aérodrome : 485 ft
- Code IATA : QSA


LELL - Sabadell

DERNIER METAR :
  • 032000Z AUTO 21006KT 170V240 3100 +TSRA BR BKN019/// BKN026/// BKN032/// ///CB 20/19 Q1006

METARs EXPIRÉS :
  • 031930Z AUTO 19004KT 9000 VCTS -SHRA FEW010/// SCT048/// ///CB 21/20 Q1006
  • 031900Z AUTO 16003KT 9999 -RA FEW008 SCT060 21/20 Q1006
  • 031830Z AUTO VRB02KT 8000 RA FEW025 SCT060 21/19 Q1006
  • 031800Z AUTO 11003KT 060V160 9999 -RA FEW048 21/19 Q1006
  • 031730Z AUTO 14005KT 9999 -RA FEW034 22/19 Q1005

TAF TAF LELL
Valide du 03 à 15h jusqu'au 04 à 15h UTC


031400Z 0315/0415 20010KT 9999 SCT030 TX22/0412Z TN14/0406Z
BECMG 0318/0320 VRB03KT
TEMPO 0315/0409 4000 TSRA SCT030CB BKN040
BECMG 0412/0414 27010KT



MET'MAP, la Météo Aéronautique d'un coup d'oeil ! - Copyright ORBIFLY Décembre 2007 - Disclaimer

ORBIFLY MET'MAP TEAM :

Programmation & Développement : Alexandra Zaïnal
Sur une idée originale de : Baudouin d'Aumeries
Assistance à la programmation : Marc-Olivier Méhu
Soutien technique & logistique : Manuel Goepfert

Contact : metmap@orbifly.com




SOURCES & CREDITS :

   NOAA